CDT,Max TemperatureF,Mean TemperatureF,Min TemperatureF,Max Dew PointF,MeanDew PointF,Min DewpointF,Max Humidity, Mean Humidity, Min Humidity, Max Sea Level PressureIn, Mean Sea Level PressureIn, Min Sea Level PressureIn, Max VisibilityMiles, Mean VisibilityMiles, Min VisibilityMiles, Max Wind SpeedMPH, Mean Wind SpeedMPH, Max Gust SpeedMPH,PrecipitationIn, CloudCover, Events, WindDirDegrees
2014-3-1,-5,-14,-22,-13,-24,-33,84,61,35,30.35,30.24,30.03,10,10,10,16,7,23,0.00,0,,286
2014-3-2,3,-13,-29,-17,-26,-36,77,59,39,30.38,30.32,30.28,10,10,10,15,6,24,0.00,0,,263
2014-3-3,12,-10,-32,0,-19,-40,85,60,28,30.38,30.22,29.57,10,9,3,8,2,,0.00,2,Snow,241
2014-3-4,17,2,-16,0,-9,-20,92,64,30,30.34,30.19,30.13,10,9,2,8,1,,0.00,1,Snow,45
2014-3-5,15,-6,-27,0,-11,-33,85,68,45,30.45,30.37,30.22,10,10,10,14,4,17,0.00,1,,153
2014-3-6,33,19,5,23,12,0,93,67,52,30.22,29.91,29.72,10,9,1,22,12,30,0.03,5,Snow,196
2014-3-7,26,19,12,25,18,7,100,84,68,30.19,29.90,29.70,10,6,1,12,3,21,0.05,7,Snow,338
2014-3-8,24,15,6,7,3,0,85,64,36,30.25,30.16,29.98,10,10,4,13,3,17,0.00,3,Snow,272
2014-3-9,46,30,14,28,21,3,80,64,43,29.96,29.63,29.51,10,10,10,15,7,23,0.00,3,,219
2014-3-10,51,38,24,30,27,23,100,67,35,29.62,29.50,29.43,10,10,7,17,6,24,0.00,1,,264
2014-3-11,35,25,14,27,18,0,86,66,49,30.05,29.82,29.63,10,10,5,15,8,23,0.00,6,Snow,321
2014-3-12,21,8,-4,3,-7,-15,79,51,26,30.13,30.05,29.90,10,10,10,12,4,,0.00,0,,183
2014-3-13,46,27,8,30,19,0,93,66,46,29.89,29.60,29.37,10,10,10,16,8,20,0.00,4,,212
2014-3-14,39,28,15,32,25,9,93,84,68,29.90,29.53,29.36,10,8,1,17,8,26,0.00,7,Snow,289
2014-3-15,15,5,-7,10,-3,-15,92,63,32,30.45,30.19,29.90,10,10,7,10,4,,0.00,1,Snow,355
2014-3-16,24,0,-23,5,-10,-29,84,56,22,30.47,30.27,29.92,10,10,10,13,3,21,0.00,0,,199
2014-3-17,24,19,14,18,14,1,86,79,49,29.91,29.67,29.58,10,9,2,16,10,18,0.02,8,Snow,157
2014-3-18,30,26,21,21,19,18,93,79,60,29.89,29.83,29.71,10,10,10,12,5,,0.00,7,,82
2014-3-19,32,26,21,23,19,16,93,76,55,29.88,29.83,29.79,10,9,4,12,5,21,0.00,8,Snow,333
2014-3-20,37,29,21,21,16,10,86,62,33,29.95,29.90,29.87,10,10,10,9,4,,0.00,4,Snow,285
2014-3-21,30,22,15,30,22,10,100,83,69,30.05,29.84,29.74,10,6,0,15,4,26,0.31,6,Snow,31
2014-3-22,15,6,-2,10,-2,-8,92,72,57,30.36,30.25,30.06,10,10,2,15,9,21,0.00,2,Snow,302
2014-3-23,15,-2,-18,-2,-8,-24,92,68,41,30.37,30.32,30.23,10,10,10,13,4,18,0.00,0,,264
2014-3-24,24,2,-20,10,-7,-27,85,63,34,30.22,30.06,29.92,10,9,1,17,5,26,0.00,2,Snow,280
2014-3-25,17,6,-5,0,-5,-11,84,59,38,30.09,30.04,30.01,10,10,7,16,8,26,0.00,1,,285
2014-3-26,24,4,-16,16,0,-20,92,69,40,30.04,29.90,29.68,10,10,5,15,4,20,0.00,2,,152
2014-3-27,28,24,21,23,20,16,100,83,74,29.75,29.64,29.59,10,7,0,9,5,,0.08,7,Snow,35
2014-3-28,30,20,10,18,3,-6,93,53,21,30.21,30.01,29.75,10,10,10,10,3,18,0.00,0,,318
2014-3-29,39,20,1,12,4,-6,78,48,23,30.25,30.15,30.01,10,10,10,13,3,20,0.00,3,,184
2014-3-30,53,40,26,30,26,12,87,59,41,30.00,29.87,29.81,10,10,10,16,8,24,0.00,1,,198
2014-3-31,44,32,21,34,29,19,100,78,57,29.92,29.75,29.55,10,8,1,16,8,24,0.15,4,Rain-Snow,62